createdAt,value
2022-08-26T15:43:11.308Z,7.55
2022-08-26T15:50:53.606Z,7.25
2022-08-26T15:58:30.335Z,8.85
2022-08-26T16:06:04.453Z,10.27
2022-08-26T16:13:40.283Z,10.23
2022-08-26T16:21:16.799Z,9.00
2022-08-26T16:28:52.336Z,9.68
2022-08-26T16:36:26.356Z,8.73
2022-08-26T16:44:02.012Z,9.37
2022-08-26T16:51:38.268Z,9.57
2022-08-26T16:59:13.674Z,8.88
2022-08-26T17:06:47.710Z,8.70
2022-08-26T17:14:22.831Z,9.93
2022-08-26T17:21:56.589Z,9.27
2022-08-26T17:29:31.734Z,10.95
2022-08-26T17:37:05.679Z,10.15
2022-08-26T17:44:41.101Z,9.70
2022-08-26T17:52:14.904Z,10.05
2022-08-26T17:59:50.088Z,10.43
2022-08-26T18:07:26.516Z,9.73
2022-08-26T18:15:01.805Z,10.52
2022-08-26T18:22:35.561Z,11.35
2022-08-26T18:30:16.636Z,11.88
2022-08-26T18:37:50.675Z,11.45
2022-08-26T18:45:26.187Z,11.17
2022-08-26T18:52:59.931Z,11.13
2022-08-26T19:00:35.023Z,11.48
2022-08-26T19:08:09.246Z,11.98
2022-08-26T19:15:46.147Z,11.03
2022-08-26T19:23:31.299Z,10.73
2022-08-26T19:31:10.467Z,11.55
2022-08-26T19:38:44.733Z,11.07
2022-08-26T19:46:22.266Z,9.27
2022-08-26T19:53:59.291Z,10.23
2022-08-26T20:01:34.491Z,10.52
2022-08-26T20:09:08.382Z,11.32
2022-08-26T20:16:43.988Z,11.68
2022-08-26T20:24:20.988Z,11.23
2022-08-26T20:31:56.549Z,11.38
2022-08-26T20:39:30.438Z,10.25
2022-08-26T20:47:06.658Z,10.75
2022-08-26T20:54:40.486Z,11.18
2022-08-26T21:02:15.880Z,11.27
2022-08-26T21:09:49.663Z,10.43
2022-08-26T21:17:27.129Z,11.27
2022-08-26T21:25:01.529Z,10.07
2022-08-26T21:32:36.855Z,11.33
2022-08-26T21:40:11.661Z,9.95
2022-08-26T21:55:20.702Z,10.85
2022-08-26T22:03:00.715Z,11.07
2022-08-26T22:10:34.694Z,10.43
2022-08-26T22:18:10.129Z,11.68
2022-08-26T22:25:44.153Z,12.98
2022-08-26T22:33:19.394Z,12.35
2022-08-26T22:40:56.576Z,11.70
2022-08-26T22:48:32.073Z,11.20
2022-08-26T22:56:06.504Z,12.85
2022-08-26T23:03:41.965Z,12.07
2022-08-26T23:11:16.110Z,11.90
2022-08-26T23:18:51.484Z,16.90
2022-08-26T23:26:25.334Z,17.23
2022-08-26T23:34:18.338Z,14.95
2022-08-26T23:41:52.243Z,15.93
2022-08-26T23:49:27.750Z,14.52
2022-08-26T23:57:01.787Z,14.75
